Time;durP1;ratioP1;P1;durP2;ratioP2;P2;SDS_P1;SDS_P2;PMS_P1;PMS_P2;Temp;Humidity;BMP_temperature;BMP_pressure;BME280_temperature;BME280_humidity;BME280_pressure;Samples;Min_cycle;Max_cycle;Signal;HPM_P1;HPM_P2
2022/03/28 00:00:28;;;;;;;11.45;3.63;;;9.70;99.90;;;;;;10344425;28;20049;-70
2022/03/28 00:05:29;;;;;;;10.98;3.50;;;9.60;99.90;;;;;;10341269;28;20060;-70
2022/03/28 00:10:31;;;;;;;7.10;2.88;;;9.50;99.90;;;;;;10341247;28;20050;-70
2022/03/28 00:15:33;;;;;;;10.23;3.42;;;9.30;99.90;;;;;;10344692;28;20072;-70
2022/03/28 00:20:34;;;;;;;6.70;2.75;;;9.30;99.90;;;;;;10344340;28;20049;-70
2022/03/28 00:25:36;;;;;;;7.20;3.50;;;9.30;99.90;;;;;;10343953;28;20115;-71
2022/03/28 00:30:38;;;;;;;9.98;4.03;;;9.20;99.90;;;;;;10324744;28;20131;-71
2022/03/28 00:35:40;;;;;;;7.43;3.50;;;9.20;99.90;;;;;;10343619;28;20069;-70
2022/03/28 00:40:42;;;;;;;10.63;3.85;;;9.20;99.90;;;;;;10327028;28;20100;-70
2022/03/28 00:45:44;;;;;;;9.05;3.33;;;9.20;99.90;;;;;;10343094;28;20112;-70
2022/03/28 00:50:46;;;;;;;6.68;3.35;;;9.10;99.90;;;;;;10348649;28;20049;-70
2022/03/28 00:55:48;;;;;;;6.03;3.25;;;9.10;99.90;;;;;;10351601;28;20046;-68
2022/03/28 01:00:49;;;;;;;8.35;3.40;;;9.10;99.90;;;;;;10351780;28;20135;-70
2022/03/28 01:06:16;;;;;;;9.57;3.85;;;9.00;99.90;;;;;;10349231;28;20045;-70
2022/03/28 01:11:19;;;;;;;9.52;3.83;;;9.00;99.90;;;;;;10351633;28;20100;-70
2022/03/28 01:16:20;;;;;;;8.45;3.65;;;8.90;99.90;;;;;;10349160;28;20088;-70
2022/03/28 01:21:22;;;;;;;8.80;3.97;;;8.90;99.90;;;;;;10350326;28;20100;-70
2022/03/28 01:26:24;;;;;;;10.43;3.92;;;8.90;99.90;;;;;;10331078;28;20554;-70
2022/03/28 01:31:26;;;;;;;9.25;4.97;;;8.80;99.90;;;;;;10350371;28;20581;-70
2022/03/28 01:36:31;;;;;;;9.43;4.93;;;8.70;99.90;;;;;;10346584;28;20081;-70
2022/03/28 01:41:32;;;;;;;10.27;4.30;;;8.70;99.90;;;;;;10348033;28;20480;-70
2022/03/28 01:46:47;;;;;;;8.98;4.38;;;8.60;99.90;;;;;;10349627;28;20053;-70
2022/03/28 01:51:50;;;;;;;8.40;4.45;;;8.60;99.90;;;;;;10346396;28;20054;-70
2022/03/28 01:56:52;;;;;;;8.20;4.10;;;8.60;99.90;;;;;;10349815;28;20038;-70
2022/03/28 02:01:54;;;;;;;9.85;4.20;;;8.50;99.90;;;;;;10345303;28;20508;-70
2022/03/28 02:06:56;;;;;;;7.65;3.97;;;8.50;99.90;;;;;;10347299;28;20076;-71
2022/03/28 02:11:57;;;;;;;11.30;5.03;;;8.40;99.90;;;;;;10345430;28;20116;-70
2022/03/28 02:16:59;;;;;;;11.27;4.25;;;8.40;99.90;;;;;;10344787;28;20108;-70
2022/03/28 02:22:01;;;;;;;9.68;4.82;;;8.30;99.90;;;;;;10346786;28;20136;-70
2022/03/28 02:27:04;;;;;;;8.43;3.53;;;8.30;99.90;;;;;;10345656;28;20066;-70
2022/03/28 02:32:06;;;;;;;11.57;5.00;;;8.30;99.90;;;;;;10347340;28;20042;-71
2022/03/28 02:37:08;;;;;;;8.70;4.00;;;8.20;99.90;;;;;;10342977;28;20073;-69
2022/03/28 02:42:10;;;;;;;7.03;3.63;;;8.20;99.90;;;;;;10346404;28;20084;-69
2022/03/28 02:47:13;;;;;;;9.65;4.43;;;8.00;99.90;;;;;;10345375;28;20492;-70
2022/03/28 02:52:39;;;;;;;7.93;3.45;;;8.00;99.90;;;;;;10346744;28;20038;-68
2022/03/28 02:57:41;;;;;;;8.85;4.30;;;7.90;99.90;;;;;;10347171;28;20046;-68
2022/03/28 03:02:44;;;;;;;10.40;3.78;;;7.80;99.90;;;;;;10346460;28;20054;-68
2022/03/28 03:07:51;;;;;;;8.38;4.30;;;7.70;99.90;;;;;;10344822;28;20052;-68
2022/03/28 03:12:52;;;;;;;11.13;4.50;;;7.70;99.90;;;;;;10343148;28;20049;-68
2022/03/28 03:17:54;;;;;;;8.75;4.70;;;7.60;99.90;;;;;;10347392;28;20082;-68
2022/03/28 03:22:56;;;;;;;9.95;4.25;;;7.60;99.90;;;;;;10327207;28;20439;-68
2022/03/28 03:27:57;;;;;;;8.45;4.45;;;7.60;99.90;;;;;;10347284;28;20112;-68
2022/03/28 03:32:59;;;;;;;11.00;4.50;;;7.60;99.90;;;;;;10345500;28;20069;-68
2022/03/28 03:38:03;;;;;;;8.18;4.00;;;7.50;99.90;;;;;;10344388;28;20046;-68
2022/03/28 03:43:04;;;;;;;11.25;5.00;;;7.40;99.90;;;;;;10345550;28;20382;-67
2022/03/28 03:48:06;;;;;;;13.68;4.13;;;7.40;99.90;;;;;;10346669;28;20049;-68
2022/03/28 03:53:09;;;;;;;9.73;4.55;;;7.40;99.90;;;;;;10346051;28;20720;-67
2022/03/28 03:58:11;;;;;;;10.10;4.25;;;7.30;99.90;;;;;;10327191;28;20107;-68
2022/03/28 04:03:12;;;;;;;7.78;4.03;;;7.20;99.90;;;;;;10342616;28;20070;-67
2022/03/28 04:08:14;;;;;;;15.82;5.95;;;7.20;99.90;;;;;;10345207;28;20072;-70
2022/03/28 04:13:15;;;;;;;9.43;5.15;;;7.10;99.90;;;;;;10337306;28;20099;-70
2022/03/28 04:18:17;;;;;;;8.57;4.18;;;7.00;99.90;;;;;;10342423;28;20115;-70
2022/03/28 04:23:20;;;;;;;10.63;4.75;;;7.00;99.90;;;;;;10337424;28;20777;-70
2022/03/28 04:28:21;;;;;;;11.40;4.68;;;7.00;99.90;;;;;;10323139;28;20053;-68
2022/03/28 04:33:23;;;;;;;7.60;4.10;;;6.90;99.90;;;;;;10341076;28;20456;-68
2022/03/28 04:38:25;;;;;;;10.93;3.78;;;6.80;99.90;;;;;;11002847;23;20050;-69
2022/03/28 04:43:26;;;;;;;9.65;3.28;;;6.80;99.90;;;;;;10340331;28;20073;-68
2022/03/28 04:48:28;;;;;;;12.93;4.82;;;6.80;99.90;;;;;;10320017;28;20051;-68
2022/03/28 04:53:30;;;;;;;9.68;4.63;;;6.70;99.90;;;;;;10329224;28;20115;-63
2022/03/28 04:58:31;;;;;;;9.25;4.22;;;6.70;99.90;;;;;;10342033;28;20046;-64
2022/03/28 05:03:33;;;;;;;10.15;4.28;;;6.60;99.90;;;;;;10343184;28;20569;-61
2022/03/28 05:08:35;;;;;;;10.95;4.43;;;6.60;99.90;;;;;;10341683;28;20045;-62
2022/03/28 05:13:37;;;;;;;13.93;3.80;;;6.60;99.90;;;;;;10337311;28;20073;-62
2022/03/28 05:18:39;;;;;;;8.25;3.70;;;6.60;99.90;;;;;;10340093;28;20128;-62
2022/03/28 05:23:40;;;;;;;7.93;3.97;;;6.50;99.90;;;;;;10340926;28;20515;-62
2022/03/28 05:28:42;;;;;;;6.68;3.70;;;6.50;99.90;;;;;;10338673;28;20049;-62
2022/03/28 05:33:44;;;;;;;8.77;4.18;;;6.50;99.90;;;;;;10334918;28;20112;-62
2022/03/28 05:38:46;;;;;;;9.45;5.07;;;6.50;99.90;;;;;;10343430;28;20054;-67
2022/03/28 05:43:48;;;;;;;16.65;7.80;;;6.50;99.90;;;;;;10345527;28;20133;-67
2022/03/28 05:48:50;;;;;;;15.48;7.25;;;6.50;99.90;;;;;;10345992;28;20077;-67
2022/03/28 05:53:51;;;;;;;12.90;6.32;;;6.50;99.90;;;;;;10349858;28;20054;-66
2022/03/28 05:58:53;;;;;;;13.15;4.90;;;6.50;99.90;;;;;;10348423;28;20135;-67
2022/03/28 06:03:57;;;;;;;14.38;4.95;;;6.80;99.90;;;;;;10351536;28;20053;-68
2022/03/28 06:09:01;;;;;;;14.77;4.38;;;6.70;99.90;;;;;;10350363;28;20056;-67
2022/03/28 06:14:03;;;;;;;9.90;4.20;;;6.80;99.90;;;;;;10350057;28;20455;-67
2022/03/28 06:19:05;;;;;;;13.13;6.03;;;6.90;99.90;;;;;;10349459;28;20062;-68
2022/03/28 06:24:08;;;;;;;16.38;5.00;;;7.10;99.90;;;;;;10332729;28;20480;-67
2022/03/28 06:29:13;;;;;;;14.37;5.20;;;7.20;99.90;;;;;;10349124;28;20050;-67
2022/03/28 06:34:16;;;;;;;14.20;4.90;;;7.30;99.90;;;;;;10349629;28;20748;-67
2022/03/28 06:39:17;;;;;;;12.45;6.10;;;7.40;99.90;;;;;;10348538;28;20049;-67
2022/03/28 06:44:19;;;;;;;17.83;6.40;;;7.60;99.90;;;;;;10347964;28;20053;-68
2022/03/28 06:49:21;;;;;;;13.10;4.72;;;7.80;99.90;;;;;;10353048;28;20746;-68
2022/03/28 06:54:22;;;;;;;13.40;5.90;;;8.00;99.90;;;;;;10350193;28;20052;-68
2022/03/28 06:59:24;;;;;;;12.15;5.43;;;8.20;99.90;;;;;;10347969;28;20046;-63
2022/03/28 07:04:26;;;;;;;8.55;4.93;;;8.40;99.90;;;;;;10345373;28;20690;-63
2022/03/28 07:09:27;;;;;;;10.15;5.03;;;8.50;99.90;;;;;;10347447;28;20108;-63
2022/03/28 07:14:29;;;;;;;12.40;5.50;;;8.70;99.90;;;;;;10344858;28;20069;-63
2022/03/28 07:19:31;;;;;;;11.50;5.07;;;8.90;99.90;;;;;;10347626;28;20054;-64
2022/03/28 07:24:33;;;;;;;10.00;6.63;;;9.10;99.90;;;;;;10346599;28;20520;-63
2022/03/28 07:29:34;;;;;;;10.55;5.60;;;9.30;99.90;;;;;;10347716;28;20050;-62
2022/03/28 07:34:38;;;;;;;14.13;5.30;;;9.50;99.90;;;;;;10347145;28;20111;-63
2022/03/28 07:39:40;;;;;;;11.75;5.95;;;9.70;99.90;;;;;;10347673;28;20074;-63
2022/03/28 07:44:42;;;;;;;12.00;5.55;;;9.90;99.90;;;;;;10346429;28;20045;-64
2022/03/28 07:49:45;;;;;;;12.38;5.15;;;10.10;99.90;;;;;;10320486;28;20054;-63
2022/03/28 07:54:48;;;;;;;13.40;5.18;;;10.30;99.90;;;;;;10346881;28;20072;-62
2022/03/28 07:59:50;;;;;;;11.07;5.13;;;10.50;99.90;;;;;;10345352;28;20112;-64
2022/03/28 08:05:12;;;;;;;16.23;5.60;;;10.70;99.90;;;;;;10331202;28;20046;-65
2022/03/28 08:10:14;;;;;;;10.88;4.97;;;10.80;99.90;;;;;;10334795;28;20057;-66
2022/03/28 08:15:17;;;;;;;10.48;5.68;;;11.10;99.90;;;;;;10342829;28;20054;-66
2022/03/28 08:20:19;;;;;;;14.02;5.45;;;11.30;99.90;;;;;;10330528;28;20459;-65
2022/03/28 08:25:22;;;;;;;10.07;5.28;;;11.50;99.90;;;;;;10313824;28;20057;-65
2022/03/28 08:30:24;;;;;;;11.23;5.70;;;11.70;99.90;;;;;;10305616;28;20038;-65
2022/03/28 08:35:27;;;;;;;14.23;5.47;;;11.90;99.90;;;;;;10340367;28;23200;-63
2022/03/28 08:40:28;;;;;;;10.45;5.57;;;12.20;99.90;;;;;;10342134;28;20500;-64
2022/03/28 08:45:30;;;;;;;9.15;5.13;;;12.40;99.90;;;;;;10340913;28;20046;-64
2022/03/28 08:50:34;;;;;;;9.70;4.97;;;12.60;99.10;;;;;;10345350;28;20054;-64
2022/03/28 08:55:37;;;;;;;10.77;5.53;;;12.70;97.20;;;;;;10343143;28;20558;-65
2022/03/28 09:00:39;;;;;;;11.43;6.32;;;13.00;96.40;;;;;;10343006;28;20081;-64
2022/03/28 09:06:37;;;;;;;10.10;5.07;;;13.20;95.60;;;;;;10345563;28;20077;-65
2022/03/28 09:11:40;;;;;;;11.57;5.65;;;13.30;93.90;;;;;;10346167;28;20314;-63
2022/03/28 09:17:12;;;;;;;15.97;6.53;;;13.50;92.60;;;;;;10349883;28;20089;-63
2022/03/28 09:22:17;;;;;;;14.40;6.00;;;13.60;91.20;;;;;;10348848;28;20073;-63
2022/03/28 09:27:22;;;;;;;9.20;5.63;;;14.00;90.90;;;;;;10347867;28;20099;-63
2022/03/28 09:32:27;;;;;;;11.27;5.90;;;14.20;88.00;;;;;;10349223;28;20114;-63
2022/03/28 09:37:29;;;;;;;9.73;5.50;;;14.50;86.50;;;;;;10349701;28;20411;-63
2022/03/28 09:42:31;;;;;;;10.43;5.03;;;14.70;84.00;;;;;;10350686;28;20049;-63
2022/03/28 09:47:33;;;;;;;12.82;6.45;;;14.90;83.70;;;;;;10349972;28;20104;-64
2022/03/28 09:53:20;;;;;;;17.02;6.20;;;15.20;81.00;;;;;;10349962;28;20046;-63
2022/03/28 09:58:38;;;;;;;14.25;6.35;;;15.50;79.30;;;;;;10347299;28;20046;-63
2022/03/28 10:03:40;;;;;;;16.38;5.68;;;15.70;77.90;;;;;;10348601;28;20056;-64
2022/03/28 10:08:43;;;;;;;16.08;6.22;;;15.90;77.10;;;;;;10351048;28;20135;-63
2022/03/28 10:13:45;;;;;;;13.27;5.90;;;16.30;74.10;;;;;;10347438;28;20120;-63
2022/03/28 10:18:50;;;;;;;15.15;6.55;;;16.50;72.90;;;;;;10319919;28;20081;-63
2022/03/28 10:24:17;;;;;;;11.25;6.10;;;16.80;71.70;;;;;;10348100;28;20065;-63
2022/03/28 10:29:22;;;;;;;15.40;8.70;;;17.20;71.70;;;;;;10334351;28;20068;-63
2022/03/28 10:34:43;;;;;;;10.05;5.70;;;17.40;69.00;;;;;;10348884;28;20045;-63
2022/03/28 10:39:45;;;;;;;8.95;5.10;;;17.80;67.40;;;;;;10345762;28;20050;-63
2022/03/28 10:45:06;;;;;;;8.90;4.70;;;17.80;65.70;;;;;;10346561;28;20061;-62
2022/03/28 10:50:10;;;;;;;10.82;4.70;;;18.30;65.50;;;;;;10347788;28;20046;-64
2022/03/28 10:55:11;;;;;;;17.23;5.57;;;18.60;63.20;;;;;;10346572;28;20049;-63
2022/03/28 11:00:14;;;;;;;9.50;4.63;;;18.80;62.90;;;;;;10347746;28;20104;-62
2022/03/28 11:05:15;;;;;;;10.50;4.97;;;19.10;61.30;;;;;;10348264;28;20050;-62
2022/03/28 11:10:18;;;;;;;7.28;4.47;;;19.30;60.50;;;;;;10344413;28;20448;-62
2022/03/28 11:15:21;;;;;;;10.30;4.68;;;19.70;59.50;;;;;;10347106;28;20050;-62
2022/03/28 11:20:51;;;;;;;7.78;4.10;;;19.80;57.60;;;;;;10345144;28;20058;-63
2022/03/28 11:25:57;;;;;;;6.43;3.80;;;20.00;55.10;;;;;;10346036;28;20049;-63
2022/03/28 11:31:12;;;;;;;9.88;3.30;;;20.10;53.80;;;;;;10344827;28;20128;-62
2022/03/28 11:36:20;;;;;;;10.80;3.28;;;20.20;52.50;;;;;;10345203;28;20050;-62
2022/03/28 11:41:25;;;;;;;7.25;2.28;;;20.10;51.20;;;;;;10344622;28;20104;-62
2022/03/28 11:46:31;;;;;;;5.65;2.67;;;20.30;48.20;;;;;;10347457;28;20049;-63
2022/03/28 11:51:39;;;;;;;5.70;2.63;;;20.20;47.90;;;;;;10347089;28;20125;-63
2022/03/28 12:02:03;;;;;;;7.07;2.65;;;20.50;49.00;;;;;;10345567;28;20054;-63
2022/03/28 12:07:06;;;;;;;5.95;3.20;;;20.60;48.30;;;;;;10347551;28;20088;-64
2022/03/28 12:12:09;;;;;;;9.60;2.67;;;20.50;47.20;;;;;;10336417;28;20061;-64
2022/03/28 12:17:27;;;;;;;7.35;2.60;;;20.90;48.10;;;;;;10346174;28;20633;-63
2022/03/28 12:22:29;;;;;;;8.52;3.08;;;21.00;46.80;;;;;;10345258;28;20054;-64
2022/03/28 12:27:31;;;;;;;5.95;2.70;;;21.20;47.10;;;;;;10344389;28;20111;-63
2022/03/28 12:32:32;;;;;;;9.75;2.88;;;21.10;47.20;;;;;;10343877;28;20050;-63
2022/03/28 12:37:36;;;;;;;7.40;3.17;;;21.50;47.20;;;;;;10344772;28;20057;-63
2022/03/28 12:42:42;;;;;;;6.22;2.78;;;21.60;45.60;;;;;;10342595;28;20061;-64
2022/03/28 12:47:55;;;;;;;8.63;2.63;;;22.10;45.10;;;;;;10325539;28;20467;-63
2022/03/28 12:53:13;;;;;;;8.32;3.58;;;21.80;46.90;;;;;;10353551;28;20053;-64
2022/03/28 12:58:15;;;;;;;6.65;3.17;;;21.90;45.90;;;;;;10349669;28;20060;-63
2022/03/28 13:03:27;;;;;;;12.02;4.13;;;22.40;45.90;;;;;;10335377;28;20444;-64
2022/03/28 13:08:40;;;;;;;5.82;3.28;;;22.00;46.70;;;;;;10353706;28;20053;-64
2022/03/28 13:13:44;;;;;;;8.95;3.70;;;22.10;46.20;;;;;;10349809;28;20054;-63
2022/03/28 13:19:00;;;;;;;5.85;2.70;;;22.20;45.40;;;;;;10352381;28;20103;-64
2022/03/28 13:24:04;;;;;;;6.93;3.25;;;22.20;45.80;;;;;;10351305;28;20072;-63
2022/03/28 13:29:32;;;;;;;8.48;2.85;;;22.20;45.70;;;;;;10352697;28;20389;-62
2022/03/28 13:34:34;;;;;;;10.63;2.58;;;22.00;45.40;;;;;;10346652;28;20054;-63
2022/03/28 13:39:36;;;;;;;8.50;2.40;;;22.80;46.00;;;;;;10323670;28;20112;-61
2022/03/28 13:44:38;;;;;;;8.27;3.30;;;22.30;45.10;;;;;;10308613;28;20053;-62
2022/03/28 13:50:05;;;;;;;9.95;3.47;;;22.80;44.10;;;;;;10313459;28;20042;-63
2022/03/28 13:55:07;;;;;;;8.55;3.13;;;22.80;43.50;;;;;;10301989;28;20061;-62
2022/03/28 14:00:11;;;;;;;8.90;3.65;;;23.00;43.50;;;;;;10309896;28;20116;-62
2022/03/28 14:05:32;;;;;;;9.30;3.97;;;23.20;42.30;;;;;;10308045;28;20649;-62
2022/03/28 14:10:34;;;;;;;7.78;3.63;;;22.80;42.70;;;;;;10308542;28;20042;-62
2022/03/28 14:15:37;;;;;;;6.82;2.50;;;23.50;42.20;;;;;;10309253;28;20046;-62
2022/03/28 14:20:39;;;;;;;8.20;3.50;;;23.80;42.20;;;;;;10310047;28;20122;-62
2022/03/28 14:25:42;;;;;;;7.55;2.92;;;23.30;40.10;;;;;;10310675;28;20946;-63
2022/03/28 14:30:44;;;;;;;7.57;3.65;;;23.30;41.30;;;;;;10304572;28;20046;-61
2022/03/28 14:35:46;;;;;;;11.02;3.80;;;22.70;41.30;;;;;;10310333;28;20042;-62
2022/03/28 14:40:48;;;;;;;7.13;2.95;;;22.50;41.70;;;;;;10308783;28;20050;-63
2022/03/28 14:51:14;;;;;;;10.07;2.83;;;22.10;43.20;;;;;;10307477;28;20046;-63
2022/03/28 14:56:16;;;;;;;11.15;4.72;;;21.90;42.30;;;;;;10308582;28;20477;-63
2022/03/28 15:01:28;;;;;;;12.70;5.72;;;21.80;43.10;;;;;;10307524;28;20415;-64
2022/03/28 15:06:33;;;;;;;11.30;3.83;;;21.70;42.60;;;;;;10307905;28;20066;-64
2022/03/28 15:11:40;;;;;;;4.70;1.60;;;21.70;42.70;;;;;;10306807;28;20050;-63
2022/03/28 15:16:44;;;;;;;6.97;2.17;;;21.90;42.50;;;;;;10309042;28;20042;-63
2022/03/28 15:21:45;;;;;;;9.40;2.53;;;22.10;41.30;;;;;;10305868;28;20056;-63
2022/03/28 15:26:47;;;;;;;7.45;2.30;;;22.30;41.70;;;;;;10306146;28;20077;-63
2022/03/28 15:31:50;;;;;;;6.50;3.05;;;22.20;40.60;;;;;;10306337;28;20086;-64
2022/03/28 15:36:53;;;;;;;9.27;2.67;;;22.50;39.60;;;;;;10314352;28;20129;-63
2022/03/28 15:41:54;;;;;;;8.40;2.03;;;22.60;39.50;;;;;;10347423;28;20046;-63
2022/03/28 15:46:56;;;;;;;8.68;2.72;;;22.50;38.40;;;;;;10345854;28;20054;-62
2022/03/28 15:52:22;;;;;;;5.90;1.40;;;22.40;35.10;;;;;;10342909;28;20057;-63
2022/03/28 15:57:26;;;;;;;3.97;1.60;;;22.40;36.90;;;;;;10327464;28;20049;-63
2022/03/28 16:02:27;;;;;;;5.63;1.98;;;22.30;32.60;;;;;;10345297;28;20540;-64
2022/03/28 16:07:29;;;;;;;4.07;1.10;;;22.10;31.30;;;;;;10342029;28;20053;-63
2022/03/28 16:12:31;;;;;;;6.53;1.58;;;21.80;31.50;;;;;;10319219;28;20424;-62
2022/03/28 16:17:36;;;;;;;4.40;2.13;;;21.80;30.90;;;;;;10342842;28;20042;-60
2022/03/28 16:22:38;;;;;;;5.38;1.67;;;21.60;30.20;;;;;;10345252;28;20068;-61
2022/03/28 16:27:40;;;;;;;5.18;2.58;;;21.40;31.90;;;;;;10343949;28;20054;-62
2022/03/28 16:32:41;;;;;;;6.47;2.55;;;21.20;32.80;;;;;;10348875;28;20049;-62
2022/03/28 16:37:43;;;;;;;7.25;2.05;;;21.10;32.80;;;;;;10344865;28;20064;-64
2022/03/28 16:42:45;;;;;;;4.13;1.90;;;20.90;33.50;;;;;;10345155;28;20152;-62
2022/03/28 16:47:48;;;;;;;2.58;1.30;;;20.80;34.30;;;;;;10320721;28;20420;-62
2022/03/28 16:52:55;;;;;;;5.07;1.75;;;20.60;35.00;;;;;;10344362;28;20396;-62
2022/03/28 16:58:02;;;;;;;3.10;1.48;;;20.50;35.40;;;;;;10344226;28;20058;-62
2022/03/28 17:03:05;;;;;;;4.43;1.65;;;20.30;36.60;;;;;;10344044;28;20046;-62
2022/03/28 17:08:09;;;;;;;5.07;1.60;;;20.00;37.80;;;;;;10343344;28;20100;-63
2022/03/28 17:13:36;;;;;;;4.45;1.70;;;19.80;38.40;;;;;;10339666;28;20037;-62
2022/03/28 17:18:38;;;;;;;10.13;2.30;;;19.60;39.30;;;;;;10323942;28;20448;-62
2022/03/28 17:23:40;;;;;;;6.82;1.92;;;19.40;39.60;;;;;;10340861;28;20345;-62
2022/03/28 17:28:42;;;;;;;3.72;1.48;;;19.20;40.10;;;;;;10343094;28;20057;-63
2022/03/28 17:33:45;;;;;;;8.68;2.08;;;19.00;40.30;;;;;;10349976;28;20081;-63
2022/03/28 17:38:47;;;;;;;5.78;1.85;;;18.90;40.60;;;;;;10350355;28;20050;-62
2022/03/28 17:43:48;;;;;;;4.15;1.73;;;18.70;40.50;;;;;;10335969;28;20128;-63
2022/03/28 17:48:52;;;;;;;7.53;2.13;;;18.60;40.50;;;;;;10347252;28;20393;-62
2022/03/28 17:53:55;;;;;;;7.43;2.30;;;18.60;40.90;;;;;;10347163;28;20046;-62
2022/03/28 17:58:58;;;;;;;4.35;2.22;;;18.40;40.80;;;;;;10350938;28;20038;-62
2022/03/28 18:04:03;;;;;;;11.90;3.28;;;18.30;41.00;;;;;;10350889;28;20045;-61
2022/03/28 18:09:07;;;;;;;13.10;2.40;;;18.20;43.60;;;;;;10346796;28;20057;-61
2022/03/28 18:14:10;;;;;;;14.38;2.97;;;17.90;44.30;;;;;;10342992;28;20484;-66
2022/03/28 18:19:15;;;;;;;14.15;2.80;;;17.70;45.00;;;;;;10346454;28;20057;-67
2022/03/28 18:24:18;;;;;;;14.93;2.95;;;17.40;46.10;;;;;;10347158;28;20046;-67
2022/03/28 18:29:22;;;;;;;8.50;2.45;;;17.20;46.90;;;;;;10344979;28;20042;-67
2022/03/28 18:34:24;;;;;;;9.63;2.35;;;16.90;50.30;;;;;;10338857;28;20092;-66
2022/03/28 18:39:25;;;;;;;7.88;2.95;;;16.70;51.40;;;;;;10346373;28;20054;-67
2022/03/28 18:44:27;;;;;;;10.57;2.95;;;16.50;52.00;;;;;;10346664;28;20141;-68
2022/03/28 18:49:30;;;;;;;9.65;3.20;;;16.20;52.70;;;;;;10343611;28;20054;-66
2022/03/28 18:54:32;;;;;;;6.25;2.00;;;16.00;52.80;;;;;;10345442;28;20045;-67
2022/03/28 18:59:35;;;;;;;5.70;2.08;;;15.90;50.20;;;;;;10319477;28;20099;-68
2022/03/28 19:04:38;;;;;;;9.45;2.65;;;15.60;51.50;;;;;;10334623;28;20053;-67
2022/03/28 19:09:41;;;;;;;17.90;3.70;;;15.50;51.00;;;;;;10316413;28;20055;-66
2022/03/28 19:14:46;;;;;;;5.30;2.22;;;15.30;51.70;;;;;;10341032;28;20136;-68
2022/03/28 19:19:49;;;;;;;7.13;1.60;;;15.20;53.00;;;;;;10338359;28;20521;-66
2022/03/28 19:24:52;;;;;;;8.80;1.98;;;15.10;52.20;;;;;;10342211;28;20061;-66
2022/03/28 19:29:54;;;;;;;6.32;2.72;;;15.00;52.30;;;;;;10335135;28;20050;-67
2022/03/28 19:34:56;;;;;;;4.05;1.65;;;14.90;53.10;;;;;;10341838;28;20665;-67
2022/03/28 19:39:58;;;;;;;7.60;1.88;;;14.80;55.50;;;;;;10341836;28;20103;-68
2022/03/28 19:45:00;;;;;;;5.72;2.58;;;14.60;55.90;;;;;;10346646;28;20068;-68
2022/03/28 19:50:05;;;;;;;4.32;2.05;;;14.40;56.00;;;;;;10340201;28;20412;-67
2022/03/28 19:55:10;;;;;;;7.32;2.25;;;14.20;56.50;;;;;;10333293;28;20057;-67
2022/03/28 20:00:12;;;;;;;8.73;3.08;;;14.10;56.80;;;;;;10340561;28;20396;-68
2022/03/28 20:05:14;;;;;;;5.68;2.10;;;14.00;57.10;;;;;;10344061;28;20046;-67
2022/03/28 20:10:16;;;;;;;5.63;2.17;;;13.90;57.90;;;;;;10344171;28;20144;-67
2022/03/28 20:15:18;;;;;;;8.68;2.55;;;13.80;57.70;;;;;;10311901;28;20101;-67
2022/03/28 20:20:23;;;;;;;7.03;3.40;;;13.70;59.10;;;;;;10345733;28;20057;-66
2022/03/28 20:25:25;;;;;;;7.03;2.97;;;13.70;60.80;;;;;;10338915;28;20458;-67
2022/03/28 20:30:27;;;;;;;7.75;2.88;;;13.50;61.10;;;;;;10339285;28;20127;-67
2022/03/28 20:35:29;;;;;;;9.82;3.35;;;13.40;62.20;;;;;;10325755;28;20412;-68
2022/03/28 20:40:31;;;;;;;6.93;3.00;;;13.30;62.20;;;;;;10319616;28;20046;-66
2022/03/28 20:45:33;;;;;;;13.23;3.35;;;13.20;64.20;;;;;;10303682;28;20049;-66
2022/03/28 20:50:36;;;;;;;8.02;3.08;;;13.00;64.50;;;;;;10303409;28;20046;-66
2022/03/28 20:55:39;;;;;;;9.25;3.25;;;12.80;65.00;;;;;;10303427;28;20089;-67
2022/03/28 21:00:41;;;;;;;10.90;4.57;;;12.70;65.10;;;;;;10303889;28;20069;-67
2022/03/28 21:05:46;;;;;;;10.00;3.25;;;12.60;65.30;;;;;;10305728;28;20050;-67
2022/03/28 21:10:48;;;;;;;9.32;3.40;;;12.50;66.50;;;;;;10294444;28;20122;-67
2022/03/28 21:15:50;;;;;;;7.93;3.63;;;12.50;66.70;;;;;;10289662;28;20112;-66
2022/03/28 21:20:52;;;;;;;8.73;3.90;;;12.40;67.10;;;;;;10310165;28;20054;-68
2022/03/28 21:25:53;;;;;;;8.88;3.10;;;12.20;67.70;;;;;;10310038;28;20282;-66
2022/03/28 21:30:55;;;;;;;6.53;3.20;;;12.20;68.50;;;;;;10310002;28;20508;-67
2022/03/28 21:35:57;;;;;;;10.15;3.30;;;12.10;68.90;;;;;;10325189;28;20054;-67
2022/03/28 21:40:59;;;;;;;14.82;3.70;;;12.10;69.10;;;;;;10309273;28;20065;-66
2022/03/28 21:46:05;;;;;;;13.18;3.67;;;12.00;70.10;;;;;;10311103;28;20046;-65
2022/03/28 21:51:07;;;;;;;8.25;3.72;;;11.90;69.40;;;;;;10311515;28;20233;-65
2022/03/28 21:56:09;;;;;;;9.23;3.08;;;11.90;69.00;;;;;;10294650;28;20063;-66
2022/03/28 22:01:11;;;;;;;11.07;4.03;;;11.80;68.50;;;;;;10308428;28;20539;-67
2022/03/28 22:06:13;;;;;;;8.65;3.72;;;11.80;68.40;;;;;;10302912;28;20054;-68
2022/03/28 22:11:14;;;;;;;12.82;4.22;;;11.80;68.70;;;;;;10306571;28;20540;-67
2022/03/28 22:16:16;;;;;;;13.27;4.13;;;11.70;70.20;;;;;;10279769;28;20050;-69
2022/03/28 22:21:18;;;;;;;10.70;3.88;;;11.70;69.80;;;;;;10311663;28;20045;-68
2022/03/28 22:26:21;;;;;;;10.02;3.83;;;11.70;69.30;;;;;;10310825;28;20054;-69
2022/03/28 22:31:22;;;;;;;8.13;4.47;;;11.60;70.00;;;;;;10311369;28;20053;-69
2022/03/28 22:36:24;;;;;;;10.98;4.75;;;11.60;72.00;;;;;;10311290;28;20042;-68
2022/03/28 22:41:26;;;;;;;12.07;5.57;;;11.50;73.20;;;;;;10313288;28;20112;-69
2022/03/28 22:46:27;;;;;;;16.73;5.07;;;11.50;74.40;;;;;;10299042;28;20051;-69
2022/03/28 22:51:29;;;;;;;14.77;4.80;;;11.40;74.40;;;;;;10314074;28;20730;-68
2022/03/28 22:56:32;;;;;;;12.77;4.55;;;11.30;74.40;;;;;;10281267;28;20042;-69
2022/03/28 23:01:35;;;;;;;15.07;5.40;;;11.30;72.10;;;;;;10311755;28;20409;-68
2022/03/28 23:06:36;;;;;;;15.95;5.22;;;11.30;71.90;;;;;;10312195;28;20054;-68
2022/03/28 23:11:38;;;;;;;10.25;5.03;;;11.30;71.10;;;;;;10311887;28;20038;-68
2022/03/28 23:16:40;;;;;;;13.73;4.70;;;11.30;70.40;;;;;;10306640;28;20124;-66
2022/03/28 23:21:42;;;;;;;13.57;5.72;;;11.30;72.50;;;;;;10305789;28;20073;-68
2022/03/28 23:26:45;;;;;;;13.23;5.38;;;11.30;70.60;;;;;;10303184;28;20152;-66
2022/03/28 23:31:47;;;;;;;11.50;5.20;;;11.30;70.00;;;;;;10307892;28;20404;-68
2022/03/28 23:36:49;;;;;;;15.45;5.70;;;11.40;69.30;;;;;;10306710;28;20049;-66
2022/03/28 23:41:51;;;;;;;15.68;5.97;;;11.40;69.40;;;;;;10347542;28;20060;-67
2022/03/28 23:46:52;;;;;;;17.10;5.68;;;11.40;68.20;;;;;;10328442;28;20506;-67
2022/03/28 23:51:54;;;;;;;13.25;6.00;;;11.50;68.00;;;;;;10333261;28;20049;-67
2022/03/28 23:56:59;;;;;;;16.52;5.85;;;11.50;68.00;;;;;;10346683;28;20045;-68
